sensor_id;sensor_type;location;lat;lon;timestamp;temperature;humidity
22290;DHT22;11313;50.116;8.424;2023-11-21T00:02:06;25.90;49.00
22290;DHT22;11313;50.116;8.424;2023-11-21T00:04:32;25.90;49.00
22290;DHT22;11313;50.116;8.424;2023-11-21T00:06:57;26.00;49.10
22290;DHT22;11313;50.116;8.424;2023-11-21T00:09:23;25.90;49.20
22290;DHT22;11313;50.116;8.424;2023-11-21T00:11:48;25.90;49.20
22290;DHT22;11313;50.116;8.424;2023-11-21T00:14:14;26.00;49.20
22290;DHT22;11313;50.116;8.424;2023-11-21T00:16:41;25.90;49.10
22290;DHT22;11313;50.116;8.424;2023-11-21T00:19:06;26.00;49.20
22290;DHT22;11313;50.116;8.424;2023-11-21T00:21:31;26.00;49.20
22290;DHT22;11313;50.116;8.424;2023-11-21T00:23:57;26.00;49.20
22290;DHT22;11313;50.116;8.424;2023-11-21T00:26:23;26.00;49.10
22290;DHT22;11313;50.116;8.424;2023-11-21T00:28:49;26.00;49.20
22290;DHT22;11313;50.116;8.424;2023-11-21T00:31:15;26.00;49.10
22290;DHT22;11313;50.116;8.424;2023-11-21T00:33:41;26.00;49.10
22290;DHT22;11313;50.116;8.424;2023-11-21T00:36:07;26.00;49.10
22290;DHT22;11313;50.116;8.424;2023-11-21T00:38:35;26.00;49.00
22290;DHT22;11313;50.116;8.424;2023-11-21T00:41:01;26.00;49.00
22290;DHT22;11313;50.116;8.424;2023-11-21T00:43:26;26.00;49.00
22290;DHT22;11313;50.116;8.424;2023-11-21T00:45:52;26.00;49.00
22290;DHT22;11313;50.116;8.424;2023-11-21T00:48:17;26.00;49.60
22290;DHT22;11313;50.116;8.424;2023-11-21T00:50:45;26.00;49.00
22290;DHT22;11313;50.116;8.424;2023-11-21T00:53:11;26.00;48.90
22290;DHT22;11313;50.116;8.424;2023-11-21T00:55:37;26.00;48.90
22290;DHT22;11313;50.116;8.424;2023-11-21T00:58:05;26.00;48.90
22290;DHT22;11313;50.116;8.424;2023-11-21T01:00:32;26.00;48.90
22290;DHT22;11313;50.116;8.424;2023-11-21T01:02:58;26.00;48.90
22290;DHT22;11313;50.116;8.424;2023-11-21T01:05:24;26.00;48.90
22290;DHT22;11313;50.116;8.424;2023-11-21T01:07:49;26.00;48.90
22290;DHT22;11313;50.116;8.424;2023-11-21T01:10:15;26.00;48.90
22290;DHT22;11313;50.116;8.424;2023-11-21T01:12:42;26.00;48.90
22290;DHT22;11313;50.116;8.424;2023-11-21T01:15:08;26.00;48.90
22290;DHT22;11313;50.116;8.424;2023-11-21T01:17:33;26.00;48.90
22290;DHT22;11313;50.116;8.424;2023-11-21T01:20:00;26.00;48.90
22290;DHT22;11313;50.116;8.424;2023-11-21T01:22:26;26.00;48.90
22290;DHT22;11313;50.116;8.424;2023-11-21T01:24:54;26.00;48.90
22290;DHT22;11313;50.116;8.424;2023-11-21T01:27:20;26.00;48.90
22290;DHT22;11313;50.116;8.424;2023-11-21T01:29:46;26.00;49.00
22290;DHT22;11313;50.116;8.424;2023-11-21T01:32:11;26.00;48.90
22290;DHT22;11313;50.116;8.424;2023-11-21T01:34:37;26.00;48.90
22290;DHT22;11313;50.116;8.424;2023-11-21T01:37:03;26.00;49.00
22290;DHT22;11313;50.116;8.424;2023-11-21T01:39:30;26.00;48.90
22290;DHT22;11313;50.116;8.424;2023-11-21T01:41:56;26.00;48.90
22290;DHT22;11313;50.116;8.424;2023-11-21T01:44:24;26.00;49.00
22290;DHT22;11313;50.116;8.424;2023-11-21T01:46:50;26.00;49.00
22290;DHT22;11313;50.116;8.424;2023-11-21T01:49:16;26.00;49.00
22290;DHT22;11313;50.116;8.424;2023-11-21T01:51:47;26.00;48.90
22290;DHT22;11313;50.116;8.424;2023-11-21T01:54:14;26.00;49.00
22290;DHT22;11313;50.116;8.424;2023-11-21T01:56:40;26.00;49.00
22290;DHT22;11313;50.116;8.424;2023-11-21T01:59:05;26.00;49.00
22290;DHT22;11313;50.116;8.424;2023-11-21T02:01:33;26.00;49.00
22290;DHT22;11313;50.116;8.424;2023-11-21T02:03:58;26.00;49.00
22290;DHT22;11313;50.116;8.424;2023-11-21T02:06:24;26.00;49.00
22290;DHT22;11313;50.116;8.424;2023-11-21T02:08:49;26.00;49.00
22290;DHT22;11313;50.116;8.424;2023-11-21T02:11:15;26.00;49.00
22290;DHT22;11313;50.116;8.424;2023-11-21T02:13:41;26.00;49.00
22290;DHT22;11313;50.116;8.424;2023-11-21T02:16:11;26.00;49.00
22290;DHT22;11313;50.116;8.424;2023-11-21T02:18:38;26.00;49.70
22290;DHT22;11313;50.116;8.424;2023-11-21T02:21:05;26.00;49.00
22290;DHT22;11313;50.116;8.424;2023-11-21T02:23:33;26.00;49.00
22290;DHT22;11313;50.116;8.424;2023-11-21T02:25:59;26.00;49.00
22290;DHT22;11313;50.116;8.424;2023-11-21T02:28:24;25.90;48.90
22290;DHT22;11313;50.116;8.424;2023-11-21T02:30:56;26.00;49.00
22290;DHT22;11313;50.116;8.424;2023-11-21T02:33:23;25.90;49.00
22290;DHT22;11313;50.116;8.424;2023-11-21T02:35:49;25.90;49.00
22290;DHT22;11313;50.116;8.424;2023-11-21T02:38:16;25.90;49.00
22290;DHT22;11313;50.116;8.424;2023-11-21T02:40:45;25.90;49.00
22290;DHT22;11313;50.116;8.424;2023-11-21T02:43:11;25.90;49.00
22290;DHT22;11313;50.116;8.424;2023-11-21T02:45:37;25.90;49.10
22290;DHT22;11313;50.116;8.424;2023-11-21T02:48:03;26.00;49.00
22290;DHT22;11313;50.116;8.424;2023-11-21T02:50:29;25.90;49.00
22290;DHT22;11313;50.116;8.424;2023-11-21T02:52:55;25.90;49.00
22290;DHT22;11313;50.116;8.424;2023-11-21T02:55:23;25.90;49.00
22290;DHT22;11313;50.116;8.424;2023-11-21T02:57:50;25.90;49.00
22290;DHT22;11313;50.116;8.424;2023-11-21T03:00:16;25.90;49.00
22290;DHT22;11313;50.116;8.424;2023-11-21T03:02:42;25.90;49.00
22290;DHT22;11313;50.116;8.424;2023-11-21T03:05:08;25.90;49.00
22290;DHT22;11313;50.116;8.424;2023-11-21T03:07:34;25.90;49.00
22290;DHT22;11313;50.116;8.424;2023-11-21T03:10:00;25.90;49.00
22290;DHT22;11313;50.116;8.424;2023-11-21T03:12:26;25.90;49.00
22290;DHT22;11313;50.116;8.424;2023-11-21T03:14:52;25.90;49.00
22290;DHT22;11313;50.116;8.424;2023-11-21T03:17:19;25.90;49.10
22290;DHT22;11313;50.116;8.424;2023-11-21T03:19:45;25.90;49.10
22290;DHT22;11313;50.116;8.424;2023-11-21T03:22:11;25.90;49.10
22290;DHT22;11313;50.116;8.424;2023-11-21T03:24:40;25.90;49.00
22290;DHT22;11313;50.116;8.424;2023-11-21T03:27:08;25.90;49.00
22290;DHT22;11313;50.116;8.424;2023-11-21T03:29:34;25.90;49.00
22290;DHT22;11313;50.116;8.424;2023-11-21T03:32:00;25.80;49.00
22290;DHT22;11313;50.116;8.424;2023-11-21T03:34:29;25.80;49.10
22290;DHT22;11313;50.116;8.424;2023-11-21T03:36:55;25.90;49.20
22290;DHT22;11313;50.116;8.424;2023-11-21T03:39:21;25.90;49.10
22290;DHT22;11313;50.116;8.424;2023-11-21T03:41:47;25.90;49.10
22290;DHT22;11313;50.116;8.424;2023-11-21T03:44:14;25.90;49.10
22290;DHT22;11313;50.116;8.424;2023-11-21T03:46:40;25.90;49.10
22290;DHT22;11313;50.116;8.424;2023-11-21T03:49:06;25.90;49.10
22290;DHT22;11313;50.116;8.424;2023-11-21T03:51:33;25.90;49.10
22290;DHT22;11313;50.116;8.424;2023-11-21T03:53:59;25.90;49.10
22290;DHT22;11313;50.116;8.424;2023-11-21T03:56:25;25.90;49.10
22290;DHT22;11313;50.116;8.424;2023-11-21T03:58:51;25.90;49.10
22290;DHT22;11313;50.116;8.424;2023-11-21T04:01:21;25.90;49.00
22290;DHT22;11313;50.116;8.424;2023-11-21T04:03:47;25.90;49.00
22290;DHT22;11313;50.116;8.424;2023-11-21T04:06:13;25.90;49.10
22290;DHT22;11313;50.116;8.424;2023-11-21T04:08:38;25.90;49.10
22290;DHT22;11313;50.116;8.424;2023-11-21T04:11:04;25.90;49.10
22290;DHT22;11313;50.116;8.424;2023-11-21T04:13:30;25.90;49.10
22290;DHT22;11313;50.116;8.424;2023-11-21T04:15:56;25.90;49.10
22290;DHT22;11313;50.116;8.424;2023-11-21T04:18:22;25.90;49.10
22290;DHT22;11313;50.116;8.424;2023-11-21T04:20:50;25.90;49.10
22290;DHT22;11313;50.116;8.424;2023-11-21T04:23:16;25.90;49.10
22290;DHT22;11313;50.116;8.424;2023-11-21T04:25:43;25.90;49.10
22290;DHT22;11313;50.116;8.424;2023-11-21T04:28:08;25.90;49.10
22290;DHT22;11313;50.116;8.424;2023-11-21T04:30:37;25.90;49.10
22290;DHT22;11313;50.116;8.424;2023-11-21T04:33:04;25.90;49.10
22290;DHT22;11313;50.116;8.424;2023-11-21T04:35:30;25.90;49.10
22290;DHT22;11313;50.116;8.424;2023-11-21T04:37:57;25.90;49.10
22290;DHT22;11313;50.116;8.424;2023-11-21T04:40:23;25.90;49.10
22290;DHT22;11313;50.116;8.424;2023-11-21T04:42:48;25.90;49.10
22290;DHT22;11313;50.116;8.424;2023-11-21T04:45:14;25.90;49.10
22290;DHT22;11313;50.116;8.424;2023-11-21T04:47:44;25.90;49.10
22290;DHT22;11313;50.116;8.424;2023-11-21T04:50:10;25.90;49.00
22290;DHT22;11313;50.116;8.424;2023-11-21T04:52:39;25.90;49.00
22290;DHT22;11313;50.116;8.424;2023-11-21T04:55:05;25.90;49.00
22290;DHT22;11313;50.116;8.424;2023-11-21T04:57:32;25.90;49.10
22290;DHT22;11313;50.116;8.424;2023-11-21T04:59:57;25.90;49.10
22290;DHT22;11313;50.116;8.424;2023-11-21T05:02:23;25.90;49.10
22290;DHT22;11313;50.116;8.424;2023-11-21T05:04:49;25.90;49.10
22290;DHT22;11313;50.116;8.424;2023-11-21T05:07:14;25.90;49.10
22290;DHT22;11313;50.116;8.424;2023-11-21T05:09:44;25.90;49.10
22290;DHT22;11313;50.116;8.424;2023-11-21T05:12:12;25.90;49.10
22290;DHT22;11313;50.116;8.424;2023-11-21T05:14:38;25.90;49.10
22290;DHT22;11313;50.116;8.424;2023-11-21T05:17:04;25.90;49.10
22290;DHT22;11313;50.116;8.424;2023-11-21T05:19:30;25.90;49.20
22290;DHT22;11313;50.116;8.424;2023-11-21T05:21:55;25.90;49.10
22290;DHT22;11313;50.116;8.424;2023-11-21T05:24:21;25.90;49.10
22290;DHT22;11313;50.116;8.424;2023-11-21T05:26:47;25.90;49.10
22290;DHT22;11313;50.116;8.424;2023-11-21T05:29:13;25.90;49.10
22290;DHT22;11313;50.116;8.424;2023-11-21T05:31:42;25.90;49.10
22290;DHT22;11313;50.116;8.424;2023-11-21T05:34:10;25.80;49.10
22290;DHT22;11313;50.116;8.424;2023-11-21T05:36:36;25.80;49.10
22290;DHT22;11313;50.116;8.424;2023-11-21T05:39:02;25.80;49.10
22290;DHT22;11313;50.116;8.424;2023-11-21T05:41:30;25.80;49.10
22290;DHT22;11313;50.116;8.424;2023-11-21T05:43:56;25.90;49.10
22290;DHT22;11313;50.116;8.424;2023-11-21T05:46:21;25.80;49.10
22290;DHT22;11313;50.116;8.424;2023-11-21T05:48:47;25.90;49.20
22290;DHT22;11313;50.116;8.424;2023-11-21T05:51:13;25.80;49.10
22290;DHT22;11313;50.116;8.424;2023-11-21T05:53:39;25.80;49.10
22290;DHT22;11313;50.116;8.424;2023-11-21T05:56:05;25.90;49.10
22290;DHT22;11313;50.116;8.424;2023-11-21T05:58:31;25.80;49.10
22290;DHT22;11313;50.116;8.424;2023-11-21T06:00:56;25.80;49.10
22290;DHT22;11313;50.116;8.424;2023-11-21T06:03:28;25.80;49.10
22290;DHT22;11313;50.116;8.424;2023-11-21T06:05:54;25.80;49.10
22290;DHT22;11313;50.116;8.424;2023-11-21T06:08:20;25.80;49.10
22290;DHT22;11313;50.116;8.424;2023-11-21T06:10:49;25.80;49.20
22290;DHT22;11313;50.116;8.424;2023-11-21T06:13:14;25.80;49.20
22290;DHT22;11313;50.116;8.424;2023-11-21T06:15:40;25.80;49.20
22290;DHT22;11313;50.116;8.424;2023-11-21T06:18:06;25.80;49.20
22290;DHT22;11313;50.116;8.424;2023-11-21T06:20:35;25.80;49.80
22290;DHT22;11313;50.116;8.424;2023-11-21T06:23:02;25.80;49.20
22290;DHT22;11313;50.116;8.424;2023-11-21T06:25:29;25.90;49.20
22290;DHT22;11313;50.116;8.424;2023-11-21T06:27:58;25.80;49.10
22290;DHT22;11313;50.116;8.424;2023-11-21T06:30:33;25.80;49.10
22290;DHT22;11313;50.116;8.424;2023-11-21T06:32:59;25.80;49.10
22290;DHT22;11313;50.116;8.424;2023-11-21T06:35:26;25.80;49.20
22290;DHT22;11313;50.116;8.424;2023-11-21T06:37:55;25.80;49.20
22290;DHT22;11313;50.116;8.424;2023-11-21T06:40:21;25.80;49.20
22290;DHT22;11313;50.116;8.424;2023-11-21T06:42:47;25.80;49.20
22290;DHT22;11313;50.116;8.424;2023-11-21T06:45:19;25.80;49.20
22290;DHT22;11313;50.116;8.424;2023-11-21T06:47:45;25.80;49.20
22290;DHT22;11313;50.116;8.424;2023-11-21T06:50:11;25.80;49.20
22290;DHT22;11313;50.116;8.424;2023-11-21T06:52:37;25.80;49.20
22290;DHT22;11313;50.116;8.424;2023-11-21T06:55:04;25.80;49.20
22290;DHT22;11313;50.116;8.424;2023-11-21T06:57:31;25.80;49.20
22290;DHT22;11313;50.116;8.424;2023-11-21T06:59:58;25.80;49.10
22290;DHT22;11313;50.116;8.424;2023-11-21T07:02:23;25.80;49.10
22290;DHT22;11313;50.116;8.424;2023-11-21T07:04:49;25.90;49.20
22290;DHT22;11313;50.116;8.424;2023-11-21T07:07:15;25.80;49.20
22290;DHT22;11313;50.116;8.424;2023-11-21T07:09:41;25.80;49.20
22290;DHT22;11313;50.116;8.424;2023-11-21T07:12:07;25.80;49.20
22290;DHT22;11313;50.116;8.424;2023-11-21T07:14:35;25.90;49.20
22290;DHT22;11313;50.116;8.424;2023-11-21T07:17:02;25.90;49.20
22290;DHT22;11313;50.116;8.424;2023-11-21T07:19:28;25.90;49.20
22290;DHT22;11313;50.116;8.424;2023-11-21T07:21:55;25.90;49.20
22290;DHT22;11313;50.116;8.424;2023-11-21T07:24:21;25.80;49.10
22290;DHT22;11313;50.116;8.424;2023-11-21T07:26:49;25.90;49.20
22290;DHT22;11313;50.116;8.424;2023-11-21T07:29:15;25.90;49.20
22290;DHT22;11313;50.116;8.424;2023-11-21T07:31:41;25.80;49.10
22290;DHT22;11313;50.116;8.424;2023-11-21T07:34:07;25.90;49.20
22290;DHT22;11313;50.116;8.424;2023-11-21T07:36:34;25.90;49.10
22290;DHT22;11313;50.116;8.424;2023-11-21T07:39:02;25.90;49.10
22290;DHT22;11313;50.116;8.424;2023-11-21T07:41:28;25.90;49.10
22290;DHT22;11313;50.116;8.424;2023-11-21T07:43:55;25.90;49.20
22290;DHT22;11313;50.116;8.424;2023-11-21T07:46:21;25.90;49.10
22290;DHT22;11313;50.116;8.424;2023-11-21T07:48:47;25.90;49.10
22290;DHT22;11313;50.116;8.424;2023-11-21T07:51:13;25.90;49.20
22290;DHT22;11313;50.116;8.424;2023-11-21T07:53:39;25.80;49.10
22290;DHT22;11313;50.116;8.424;2023-11-21T07:56:06;25.80;49.10
22290;DHT22;11313;50.116;8.424;2023-11-21T07:58:36;25.90;49.20
22290;DHT22;11313;50.116;8.424;2023-11-21T08:01:02;25.80;49.10
22290;DHT22;11313;50.116;8.424;2023-11-21T08:03:28;25.90;49.20
22290;DHT22;11313;50.116;8.424;2023-11-21T08:05:58;25.90;49.20
22290;DHT22;11313;50.116;8.424;2023-11-21T08:08:24;25.90;49.80
22290;DHT22;11313;50.116;8.424;2023-11-21T08:10:50;25.90;49.20
22290;DHT22;11313;50.116;8.424;2023-11-21T08:13:26;25.90;49.20
22290;DHT22;11313;50.116;8.424;2023-11-21T08:15:56;25.80;49.20
22290;DHT22;11313;50.116;8.424;2023-11-21T08:18:22;25.80;49.20
22290;DHT22;11313;50.116;8.424;2023-11-21T08:20:48;25.80;49.20
22290;DHT22;11313;50.116;8.424;2023-11-21T08:23:15;25.90;49.30
22290;DHT22;11313;50.116;8.424;2023-11-21T08:25:46;25.80;49.20
22290;DHT22;11313;50.116;8.424;2023-11-21T08:28:12;25.80;49.20
22290;DHT22;11313;50.116;8.424;2023-11-21T08:30:41;25.80;49.20
22290;DHT22;11313;50.116;8.424;2023-11-21T08:33:07;25.80;49.20
22290;DHT22;11313;50.116;8.424;2023-11-21T08:35:42;25.80;49.20
22290;DHT22;11313;50.116;8.424;2023-11-21T08:38:07;25.90;49.30
22290;DHT22;11313;50.116;8.424;2023-11-21T08:40:35;25.80;49.20
22290;DHT22;11313;50.116;8.424;2023-11-21T08:43:01;25.80;49.20
22290;DHT22;11313;50.116;8.424;2023-11-21T08:45:30;25.80;49.20
22290;DHT22;11313;50.116;8.424;2023-11-21T08:47:56;25.80;49.20
22290;DHT22;11313;50.116;8.424;2023-11-21T08:50:22;25.80;49.20
22290;DHT22;11313;50.116;8.424;2023-11-21T08:52:48;25.80;49.20
22290;DHT22;11313;50.116;8.424;2023-11-21T08:55:15;25.80;49.20
22290;DHT22;11313;50.116;8.424;2023-11-21T08:57:43;25.80;49.20
22290;DHT22;11313;50.116;8.424;2023-11-21T09:00:10;25.80;49.20
22290;DHT22;11313;50.116;8.424;2023-11-21T09:02:41;25.80;49.20
22290;DHT22;11313;50.116;8.424;2023-11-21T09:05:08;25.80;49.20
22290;DHT22;11313;50.116;8.424;2023-11-21T09:07:35;25.80;49.20
22290;DHT22;11313;50.116;8.424;2023-11-21T09:10:02;25.80;49.20
22290;DHT22;11313;50.116;8.424;2023-11-21T09:12:28;25.80;49.10
22290;DHT22;11313;50.116;8.424;2023-11-21T09:14:54;25.80;49.10
22290;DHT22;11313;50.116;8.424;2023-11-21T09:17:19;25.80;49.10
22290;DHT22;11313;50.116;8.424;2023-11-21T09:19:48;25.80;49.10
22290;DHT22;11313;50.116;8.424;2023-11-21T09:22:17;25.80;49.10
22290;DHT22;11313;50.116;8.424;2023-11-21T09:24:43;25.80;49.10
22290;DHT22;11313;50.116;8.424;2023-11-21T09:27:09;25.80;49.10
22290;DHT22;11313;50.116;8.424;2023-11-21T09:29:35;25.80;49.10
22290;DHT22;11313;50.116;8.424;2023-11-21T09:32:02;25.80;49.10
22290;DHT22;11313;50.116;8.424;2023-11-21T09:34:28;25.80;49.10
22290;DHT22;11313;50.116;8.424;2023-11-21T09:36:54;25.80;49.10
22290;DHT22;11313;50.116;8.424;2023-11-21T09:39:19;25.80;49.10
22290;DHT22;11313;50.116;8.424;2023-11-21T09:42:25;25.80;49.10
22290;DHT22;11313;50.116;8.424;2023-11-21T09:47:38;25.90;49.10
22290;DHT22;11313;50.116;8.424;2023-11-21T09:50:05;25.90;49.10
22290;DHT22;11313;50.116;8.424;2023-11-21T09:52:39;25.90;49.10
22290;DHT22;11313;50.116;8.424;2023-11-21T09:55:09;25.90;49.10
22290;DHT22;11313;50.116;8.424;2023-11-21T09:57:43;25.90;49.10
22290;DHT22;11313;50.116;8.424;2023-11-21T10:00:10;25.90;49.10
22290;DHT22;11313;50.116;8.424;2023-11-21T10:02:38;25.90;49.10
22290;DHT22;11313;50.116;8.424;2023-11-21T10:05:06;25.90;49.10
22290;DHT22;11313;50.116;8.424;2023-11-21T10:07:35;25.90;49.00
22290;DHT22;11313;50.116;8.424;2023-11-21T10:10:02;25.90;49.00
22290;DHT22;11313;50.116;8.424;2023-11-21T10:12:28;25.90;48.90
22290;DHT22;11313;50.116;8.424;2023-11-21T10:14:58;25.90;48.90
22290;DHT22;11313;50.116;8.424;2023-11-21T10:17:25;26.00;49.00
22290;DHT22;11313;50.116;8.424;2023-11-21T10:19:56;26.00;48.90
22290;DHT22;11313;50.116;8.424;2023-11-21T10:22:22;26.00;49.00
22290;DHT22;11313;50.116;8.424;2023-11-21T10:24:49;26.00;48.90
22290;DHT22;11313;50.116;8.424;2023-11-21T10:27:14;26.00;48.90
22290;DHT22;11313;50.116;8.424;2023-11-21T10:29:40;26.00;48.90
22290;DHT22;11313;50.116;8.424;2023-11-21T10:32:07;26.00;48.80
22290;DHT22;11313;50.116;8.424;2023-11-21T10:34:33;26.00;48.80
22290;DHT22;11313;50.116;8.424;2023-11-21T10:36:59;26.00;48.80
22290;DHT22;11313;50.116;8.424;2023-11-21T10:39:36;26.00;48.80
22290;DHT22;11313;50.116;8.424;2023-11-21T10:42:01;26.00;48.80
22290;DHT22;11313;50.116;8.424;2023-11-21T10:44:27;26.00;48.80
22290;DHT22;11313;50.116;8.424;2023-11-21T10:46:54;26.00;48.80
22290;DHT22;11313;50.116;8.424;2023-11-21T10:49:24;26.00;48.80
22290;DHT22;11313;50.116;8.424;2023-11-21T10:51:51;26.00;48.70
22290;DHT22;11313;50.116;8.424;2023-11-21T10:54:25;26.00;49.30
22290;DHT22;11313;50.116;8.424;2023-11-21T10:56:57;26.00;48.70
22290;DHT22;11313;50.116;8.424;2023-11-21T10:59:23;26.00;48.70
22290;DHT22;11313;50.116;8.424;2023-11-21T11:01:50;26.00;48.70
22290;DHT22;11313;50.116;8.424;2023-11-21T11:04:19;26.00;48.70
22290;DHT22;11313;50.116;8.424;2023-11-21T11:06:54;26.00;48.70
22290;DHT22;11313;50.116;8.424;2023-11-21T11:09:20;26.00;48.60
22290;DHT22;11313;50.116;8.424;2023-11-21T11:11:46;26.10;48.70
22290;DHT22;11313;50.116;8.424;2023-11-21T11:14:13;26.00;48.60
22290;DHT22;11313;50.116;8.424;2023-11-21T11:16:40;26.00;48.60
22290;DHT22;11313;50.116;8.424;2023-11-21T11:19:09;26.00;48.60
22290;DHT22;11313;50.116;8.424;2023-11-21T11:32:55;26.00;48.50
22290;DHT22;11313;50.116;8.424;2023-11-21T11:35:33;26.00;48.60
22290;DHT22;11313;50.116;8.424;2023-11-21T11:38:03;26.00;48.60
22290;DHT22;11313;50.116;8.424;2023-11-21T11:40:44;26.00;48.50
22290;DHT22;11313;50.116;8.424;2023-11-21T11:43:10;26.00;48.50
22290;DHT22;11313;50.116;8.424;2023-11-21T11:45:37;26.00;49.20
22290;DHT22;11313;50.116;8.424;2023-11-21T11:48:07;26.00;48.50
22290;DHT22;11313;50.116;8.424;2023-11-21T11:50:33;26.10;48.60
22290;DHT22;11313;50.116;8.424;2023-11-21T11:53:20;26.10;49.20
22290;DHT22;11313;50.116;8.424;2023-11-21T11:55:46;26.10;48.60
22290;DHT22;11313;50.116;8.424;2023-11-21T11:58:11;26.10;48.60
22290;DHT22;11313;50.116;8.424;2023-11-21T12:00:37;26.10;48.80
22290;DHT22;11313;50.116;8.424;2023-11-21T12:03:07;26.10;48.60
22290;DHT22;11313;50.116;8.424;2023-11-21T12:05:33;26.10;48.60
22290;DHT22;11313;50.116;8.424;2023-11-21T12:08:06;26.00;48.50
22290;DHT22;11313;50.116;8.424;2023-11-21T12:10:36;26.10;48.60
22290;DHT22;11313;50.116;8.424;2023-11-21T12:13:03;26.10;48.60
22290;DHT22;11313;50.116;8.424;2023-11-21T12:15:31;26.10;48.60
22290;DHT22;11313;50.116;8.424;2023-11-21T12:17:57;26.10;48.60
22290;DHT22;11313;50.116;8.424;2023-11-21T12:20:26;26.10;48.60
22290;DHT22;11313;50.116;8.424;2023-11-21T12:22:53;26.10;48.60
22290;DHT22;11313;50.116;8.424;2023-11-21T12:25:21;26.10;48.60
22290;DHT22;11313;50.116;8.424;2023-11-21T12:27:48;26.10;48.60
22290;DHT22;11313;50.116;8.424;2023-11-21T12:30:19;26.10;48.60
22290;DHT22;11313;50.116;8.424;2023-11-21T12:32:49;26.10;48.60
22290;DHT22;11313;50.116;8.424;2023-11-21T12:35:15;26.10;48.60
22290;DHT22;11313;50.116;8.424;2023-11-21T12:37:41;26.10;48.60
22290;DHT22;11313;50.116;8.424;2023-11-21T12:40:10;26.20;48.60
22290;DHT22;11313;50.116;8.424;2023-11-21T12:42:42;26.10;48.60
22290;DHT22;11313;50.116;8.424;2023-11-21T12:47:43;26.10;48.60
22290;DHT22;11313;50.116;8.424;2023-11-21T12:50:13;26.10;48.60
22290;DHT22;11313;50.116;8.424;2023-11-21T12:55:09;26.10;48.50
22290;DHT22;11313;50.116;8.424;2023-11-21T12:57:35;26.20;48.60
22290;DHT22;11313;50.116;8.424;2023-11-21T13:00:04;26.20;48.50
22290;DHT22;11313;50.116;8.424;2023-11-21T13:02:37;26.20;48.50
22290;DHT22;11313;50.116;8.424;2023-11-21T13:05:04;26.20;48.50
22290;DHT22;11313;50.116;8.424;2023-11-21T13:07:43;26.20;48.50
22290;DHT22;11313;50.116;8.424;2023-11-21T13:10:13;26.20;48.50
22290;DHT22;11313;50.116;8.424;2023-11-21T13:12:45;26.20;48.50
22290;DHT22;11313;50.116;8.424;2023-11-21T13:15:14;26.20;48.50
22290;DHT22;11313;50.116;8.424;2023-11-21T13:17:43;26.20;48.50
22290;DHT22;11313;50.116;8.424;2023-11-21T13:20:12;26.20;48.50
22290;DHT22;11313;50.116;8.424;2023-11-21T13:22:53;26.30;48.50
22290;DHT22;11313;50.116;8.424;2023-11-21T13:25:21;26.30;48.60
22290;DHT22;11313;50.116;8.424;2023-11-21T13:27:46;26.20;48.50
22290;DHT22;11313;50.116;8.424;2023-11-21T13:30:13;26.20;48.50
22290;DHT22;11313;50.116;8.424;2023-11-21T13:32:44;26.20;48.50
22290;DHT22;11313;50.116;8.424;2023-11-21T13:35:11;26.20;48.50
22290;DHT22;11313;50.116;8.424;2023-11-21T13:37:48;26.30;48.50
22290;DHT22;11313;50.116;8.424;2023-11-21T13:40:15;26.30;48.50
22290;DHT22;11313;50.116;8.424;2023-11-21T13:42:45;26.30;48.50
22290;DHT22;11313;50.116;8.424;2023-11-21T13:45:11;26.30;48.50
22290;DHT22;11313;50.116;8.424;2023-11-21T13:47:38;26.20;48.50
22290;DHT22;11313;50.116;8.424;2023-11-21T13:50:04;26.30;48.50
22290;DHT22;11313;50.116;8.424;2023-11-21T13:52:33;26.30;48.50
22290;DHT22;11313;50.116;8.424;2023-11-21T13:55:01;26.20;48.50
22290;DHT22;11313;50.116;8.424;2023-11-21T13:57:31;26.30;48.50
22290;DHT22;11313;50.116;8.424;2023-11-21T13:59:58;26.30;48.50
22290;DHT22;11313;50.116;8.424;2023-11-21T14:02:24;26.30;48.50
22290;DHT22;11313;50.116;8.424;2023-11-21T14:04:58;26.30;48.60
22290;DHT22;11313;50.116;8.424;2023-11-21T14:07:26;26.30;48.50
22290;DHT22;11313;50.116;8.424;2023-11-21T14:10:04;26.20;48.50
22290;DHT22;11313;50.116;8.424;2023-11-21T14:12:39;26.30;48.60
22290;DHT22;11313;50.116;8.424;2023-11-21T14:15:08;26.20;48.50
22290;DHT22;11313;50.116;8.424;2023-11-21T14:17:35;26.20;48.60
22290;DHT22;11313;50.116;8.424;2023-11-21T14:20:03;26.20;48.60
22290;DHT22;11313;50.116;8.424;2023-11-21T14:22:30;26.20;48.60
22290;DHT22;11313;50.116;8.424;2023-11-21T14:24:56;26.20;48.60
22290;DHT22;11313;50.116;8.424;2023-11-21T14:27:25;26.20;48.70
22290;DHT22;11313;50.116;8.424;2023-11-21T14:29:50;26.10;48.60
22290;DHT22;11313;50.116;8.424;2023-11-21T14:32:18;26.10;48.60
22290;DHT22;11313;50.116;8.424;2023-11-21T14:34:43;26.20;48.70
22290;DHT22;11313;50.116;8.424;2023-11-21T14:37:12;26.20;48.70
22290;DHT22;11313;50.116;8.424;2023-11-21T14:39:39;26.10;48.60
22290;DHT22;11313;50.116;8.424;2023-11-21T14:42:10;26.10;48.70
22290;DHT22;11313;50.116;8.424;2023-11-21T14:44:38;26.10;48.60
22290;DHT22;11313;50.116;8.424;2023-11-21T14:47:06;26.10;48.70
22290;DHT22;11313;50.116;8.424;2023-11-21T14:49:43;26.10;48.70
22290;DHT22;11313;50.116;8.424;2023-11-21T14:52:19;26.20;48.70
22290;DHT22;11313;50.116;8.424;2023-11-21T14:54:58;26.20;48.80
22290;DHT22;11313;50.116;8.424;2023-11-21T14:57:50;26.10;48.70
22290;DHT22;11313;50.116;8.424;2023-11-21T15:00:17;26.10;48.80
22290;DHT22;11313;50.116;8.424;2023-11-21T15:03:04;26.10;48.80
22290;DHT22;11313;50.116;8.424;2023-11-21T15:05:31;26.10;48.80
22290;DHT22;11313;50.116;8.424;2023-11-21T15:07:57;26.10;48.80
22290;DHT22;11313;50.116;8.424;2023-11-21T15:10:39;26.10;48.80
22290;DHT22;11313;50.116;8.424;2023-11-21T15:13:13;26.10;48.80
22290;DHT22;11313;50.116;8.424;2023-11-21T15:15:40;26.10;48.80
22290;DHT22;11313;50.116;8.424;2023-11-21T15:18:06;26.10;48.90
22290;DHT22;11313;50.116;8.424;2023-11-21T15:20:32;26.00;48.80
22290;DHT22;11313;50.116;8.424;2023-11-21T15:22:58;26.00;48.80
22290;DHT22;11313;50.116;8.424;2023-11-21T15:25:23;26.00;48.80
22290;DHT22;11313;50.116;8.424;2023-11-21T15:27:49;26.00;48.90
22290;DHT22;11313;50.116;8.424;2023-11-21T15:30:16;26.10;48.90
22290;DHT22;11313;50.116;8.424;2023-11-21T15:32:45;26.00;48.80
22290;DHT22;11313;50.116;8.424;2023-11-21T15:35:12;26.00;48.90
22290;DHT22;11313;50.116;8.424;2023-11-21T15:37:40;26.00;48.90
22290;DHT22;11313;50.116;8.424;2023-11-21T15:40:06;26.00;48.90
22290;DHT22;11313;50.116;8.424;2023-11-21T15:42:34;26.00;48.90
22290;DHT22;11313;50.116;8.424;2023-11-21T15:45:00;26.00;48.90
22290;DHT22;11313;50.116;8.424;2023-11-21T15:47:26;25.90;46.50
22290;DHT22;11313;50.116;8.424;2023-11-21T15:49:51;25.70;46.50
22290;DHT22;11313;50.116;8.424;2023-11-21T15:52:17;25.50;46.80